Matinburg, Texas
Current Conditions -  °F | °C
As of 8:35 PM on Thursday 20 Nov 2014 (Local Time) from KOSA Reporting Station
Broken Clouds Broken Clouds  
Wind Chill: 60°   Ceiling: 9000
Heat Index: 60°   Visibility: 10mi
Dew Point: 54°   Wind: 7mph
Humidity: 82%   Direction: 130°SE
Pressure: 30.11"   Gusts: NA
Location:  32.9352°N, 94.9553°W
Report Text: KOSA 210235Z AUTO 13006KT 10SM SCT040 SCT050 BKN090 16/12 A3011 RMK AO1 T01550124
Loading
Personal Weather Stations






























Interactive Weather Map New forecast layout! Learn more

10-Day Weather Forecast

Advertisements
Track Severe Weather on mobile